createdAt,value
2022-10-23T00:01:18.980Z,99650.78
2022-10-23T00:03:46.574Z,99642.25
2022-10-23T00:06:14.484Z,99643.94
2022-10-23T00:08:41.773Z,99640.41
2022-10-23T00:11:10.469Z,99643.44
2022-10-23T00:13:37.430Z,99629.53
2022-10-23T00:16:04.729Z,99633.69
2022-10-23T00:18:31.437Z,99632.22
2022-10-23T00:20:58.195Z,99636.25
2022-10-23T00:23:24.959Z,99642.44
2022-10-23T00:25:51.637Z,99643.44
2022-10-23T00:28:18.475Z,99651.66
2022-10-23T00:30:45.143Z,99654.50
2022-10-23T00:33:13.823Z,99646.00
2022-10-23T00:35:41.869Z,99655.00
2022-10-23T00:38:09.364Z,99653.19
2022-10-23T00:40:37.381Z,99652.53
2022-10-23T00:43:04.933Z,99650.69
2022-10-23T00:45:33.477Z,99664.22
2022-10-23T00:48:02.057Z,99666.41
2022-10-23T00:50:31.699Z,99671.28
2022-10-23T00:53:02.099Z,99665.94
2022-10-23T00:55:30.376Z,99673.31
2022-10-23T00:57:57.046Z,99675.47
2022-10-23T01:00:46.882Z,99673.16
2022-10-23T01:03:15.718Z,99672.47
2022-10-23T01:06:14.719Z,99669.94
2022-10-23T01:08:51.531Z,99665.44
2022-10-23T01:11:29.004Z,99654.06
2022-10-23T01:16:39.492Z,99660.06
2022-10-23T01:19:13.754Z,99652.88
2022-10-23T01:21:55.605Z,99655.75
2022-10-23T01:24:40.868Z,99656.91
2022-10-23T01:27:13.726Z,99669.13
2022-10-23T01:29:48.619Z,99672.97
2022-10-23T01:32:24.803Z,99682.31
2022-10-23T01:35:11.761Z,99683.88
2022-10-23T01:38:11.961Z,99681.34
2022-10-23T01:40:48.617Z,99672.94
2022-10-23T01:43:21.973Z,99671.59
2022-10-23T01:45:53.414Z,99673.81
2022-10-23T01:48:29.230Z,99672.13
2022-10-23T01:51:00.499Z,99663.94
2022-10-23T01:53:31.208Z,99672.13
2022-10-23T01:56:01.739Z,99671.97
2022-10-23T01:58:31.511Z,99666.63
2022-10-23T02:01:03.606Z,99665.13
2022-10-23T02:03:33.316Z,99666.63
2022-10-23T02:06:00.182Z,99661.56
2022-10-23T02:08:27.391Z,99667.09
2022-10-23T02:11:13.199Z,99670.78
2022-10-23T02:13:56.246Z,99677.66
2022-10-23T02:16:37.080Z,99675.13
2022-10-23T02:19:14.437Z,99677.97
2022-10-23T02:21:47.301Z,99689.38
2022-10-23T02:24:18.717Z,99691.88
2022-10-23T02:26:55.601Z,99693.53
2022-10-23T02:29:43.302Z,99689.38
2022-10-23T02:32:12.749Z,99692.34
2022-10-23T02:34:40.762Z,99681.66
2022-10-23T02:37:10.119Z,99680.66
2022-10-23T02:39:37.133Z,99672.63
2022-10-23T02:42:20.435Z,99680.81
2022-10-23T02:45:09.906Z,99674.50
2022-10-23T02:47:59.696Z,99677.69
2022-10-23T02:50:44.062Z,99665.66
2022-10-23T02:53:21.820Z,99675.84
2022-10-23T02:56:03.337Z,99675.69
2022-10-23T02:58:56.765Z,99667.00
2022-10-23T03:01:34.323Z,99661.34
2022-10-23T03:04:05.504Z,99664.00
2022-10-23T03:06:32.846Z,99651.31
2022-10-23T03:09:04.581Z,99649.97
2022-10-23T03:11:31.588Z,99649.63
2022-10-23T03:13:58.366Z,99646.78
2022-10-23T03:16:25.317Z,99647.78
2022-10-23T03:18:55.189Z,99649.47
2022-10-23T03:21:22.558Z,99647.28
2022-10-23T03:23:52.473Z,99654.28
2022-10-23T03:26:26.348Z,99661.28
2022-10-23T03:28:53.505Z,99648.56
2022-10-23T03:31:21.579Z,99656.91
2022-10-23T03:33:54.244Z,99659.09
2022-10-23T03:36:22.077Z,99663.28
2022-10-23T03:38:48.772Z,99657.41
2022-10-23T03:41:15.574Z,99655.09
2022-10-23T03:43:42.317Z,99656.91
2022-10-23T03:46:12.568Z,99655.91
2022-10-23T03:48:39.377Z,99666.47
2022-10-23T03:51:06.587Z,99656.25
2022-10-23T03:53:33.798Z,99659.41
2022-10-23T03:56:03.454Z,99651.22
2022-10-23T03:58:31.565Z,99655.53
2022-10-23T04:00:58.694Z,99659.94
2022-10-23T04:03:26.968Z,99660.91
2022-10-23T04:05:53.713Z,99658.22
2022-10-23T04:08:22.343Z,99660.75
2022-10-23T04:10:52.091Z,99668.13
2022-10-23T04:13:24.240Z,99669.31
2022-10-23T04:15:52.679Z,99671.97
2022-10-23T04:18:19.873Z,99668.78
2022-10-23T04:20:51.019Z,99661.41
2022-10-23T04:23:18.427Z,99657.25
2022-10-23T04:28:22.823Z,99668.78
2022-10-23T04:30:49.499Z,99665.13
2022-10-23T04:33:16.199Z,99668.25
2022-10-23T04:35:43.476Z,99672.28
2022-10-23T04:38:11.171Z,99668.91
2022-10-23T04:40:38.207Z,99671.28
2022-10-23T04:43:05.023Z,99675.97
2022-10-23T04:45:36.231Z,99672.63
2022-10-23T04:48:02.987Z,99668.09
2022-10-23T04:50:40.966Z,99664.59
2022-10-23T04:53:45.709Z,99659.69
2022-10-23T04:56:28.522Z,99657.88
2022-10-23T04:59:02.988Z,99661.56
2022-10-23T05:01:30.743Z,99661.91
2022-10-23T05:03:58.414Z,99659.56
2022-10-23T05:06:25.218Z,99660.59
2022-10-23T05:09:12.923Z,99670.44
2022-10-23T05:11:50.868Z,99667.59
2022-10-23T05:14:21.952Z,99661.72
2022-10-23T05:17:17.394Z,99661.25
2022-10-23T05:19:51.006Z,99666.25
2022-10-23T05:22:20.591Z,99661.28
2022-10-23T05:24:53.105Z,99659.94
2022-10-23T05:27:23.747Z,99661.59
2022-10-23T05:29:52.090Z,99665.59
2022-10-23T05:32:25.707Z,99663.28
2022-10-23T05:34:54.034Z,99670.63
2022-10-23T05:37:21.236Z,99670.47
2022-10-23T05:39:48.012Z,99671.47
2022-10-23T05:42:16.742Z,99678.13
2022-10-23T05:44:43.538Z,99671.78
2022-10-23T05:47:29.414Z,99667.28
2022-10-23T05:50:11.468Z,99665.59
2022-10-23T05:52:54.485Z,99662.44
2022-10-23T05:55:38.205Z,99656.56
2022-10-23T05:58:17.081Z,99652.56
2022-10-23T06:01:07.499Z,99656.25
2022-10-23T06:04:00.089Z,99656.06
2022-10-23T06:06:42.221Z,99657.91
2022-10-23T06:09:08.925Z,99656.91
2022-10-23T06:11:39.367Z,99655.41
2022-10-23T06:14:12.279Z,99647.53
2022-10-23T06:16:39.694Z,99648.53
2022-10-23T06:19:11.065Z,99633.47
2022-10-23T06:21:40.393Z,99634.50
2022-10-23T06:24:09.838Z,99634.50
2022-10-23T06:26:48.153Z,99636.00
2022-10-23T06:29:19.685Z,99640.84
2022-10-23T06:31:48.287Z,99630.13
2022-10-23T06:34:15.042Z,99623.50
2022-10-23T06:36:42.230Z,99631.69
2022-10-23T06:39:29.757Z,99629.81
2022-10-23T06:42:16.918Z,99624.47
2022-10-23T06:44:56.412Z,99623.66
2022-10-23T06:47:43.663Z,99622.47
2022-10-23T06:50:26.372Z,99617.28
2022-10-23T06:52:54.536Z,99618.13
2022-10-23T06:55:22.239Z,99616.44
2022-10-23T06:57:49.175Z,99612.59
2022-10-23T07:00:16.118Z,99607.78
2022-10-23T07:02:49.743Z,99610.00
2022-10-23T07:05:16.938Z,99614.47
2022-10-23T07:07:44.214Z,99609.63
2022-10-23T07:10:15.460Z,99610.97
2022-10-23T07:12:45.633Z,99607.59
2022-10-23T07:15:37.718Z,99602.75
2022-10-23T07:18:06.646Z,99611.25
2022-10-23T07:20:58.650Z,99604.41
2022-10-23T07:23:25.856Z,99610.25
2022-10-23T07:25:52.825Z,99601.69
2022-10-23T07:28:22.800Z,99604.50
2022-10-23T07:30:57.600Z,99603.28
2022-10-23T07:33:25.005Z,99611.53
2022-10-23T07:36:09.109Z,99609.00
2022-10-23T07:38:36.373Z,99607.44
2022-10-23T07:41:03.166Z,99602.00
2022-10-23T07:45:59.736Z,99595.22
2022-10-23T07:48:32.888Z,99589.31
2022-10-23T07:51:01.633Z,99590.88
2022-10-23T07:53:29.282Z,99593.44
2022-10-23T07:56:13.016Z,99588.31
2022-10-23T07:59:02.246Z,99599.56
2022-10-23T08:01:38.177Z,99596.13
2022-10-23T08:04:05.830Z,99589.34
2022-10-23T08:06:38.331Z,99591.78
2022-10-23T08:09:06.625Z,99596.63
2022-10-23T08:11:36.881Z,99596.78
2022-10-23T08:14:08.192Z,99598.56
2022-10-23T08:16:37.627Z,99595.31
2022-10-23T08:19:16.428Z,99595.00
2022-10-23T08:21:45.173Z,99597.56
2022-10-23T08:24:13.968Z,99592.00
2022-10-23T08:26:43.075Z,99599.88
2022-10-23T08:29:10.935Z,99597.16
2022-10-23T08:31:38.019Z,99606.34
2022-10-23T08:34:31.458Z,99606.28
2022-10-23T08:37:00.426Z,99612.84
2022-10-23T08:39:27.798Z,99603.44
2022-10-23T08:42:21.104Z,99605.69
2022-10-23T08:45:28.669Z,99618.69
2022-10-23T08:48:13.840Z,99614.59
2022-10-23T08:51:15.649Z,99616.09
2022-10-23T08:54:02.896Z,99619.69
2022-10-23T08:56:39.217Z,99616.31
2022-10-23T08:59:26.261Z,99615.63
2022-10-23T09:02:01.709Z,99615.38
2022-10-23T09:04:28.857Z,99610.31
2022-10-23T09:07:23.501Z,99607.50
2022-10-23T09:10:25.353Z,99616.34
2022-10-23T09:12:52.103Z,99620.84
2022-10-23T09:15:35.048Z,99615.94
2022-10-23T09:18:12.275Z,99610.63
2022-10-23T09:20:40.291Z,99600.50
2022-10-23T09:23:15.830Z,99603.59
2022-10-23T09:25:44.665Z,99607.44
2022-10-23T09:28:24.290Z,99598.41
2022-10-23T09:30:52.209Z,99600.75
2022-10-23T09:33:28.248Z,99607.19
2022-10-23T09:36:01.706Z,99596.81
2022-10-23T09:38:37.074Z,99581.91
2022-10-23T09:41:43.874Z,99580.63
2022-10-23T09:44:24.002Z,99584.53
2022-10-23T09:46:53.624Z,99583.56
2022-10-23T09:49:23.855Z,99573.50
2022-10-23T09:52:01.160Z,99575.25
2022-10-23T09:54:30.586Z,99575.25
2022-10-23T09:57:03.432Z,99583.75
2022-10-23T09:59:31.278Z,99570.88
2022-10-23T10:02:01.314Z,99567.34
2022-10-23T10:04:48.496Z,99571.50
2022-10-23T10:07:21.607Z,99575.47
2022-10-23T10:09:49.434Z,99573.59
2022-10-23T10:12:37.917Z,99570.28
2022-10-23T10:15:15.919Z,99567.97
2022-10-23T10:17:54.679Z,99563.63
2022-10-23T10:20:36.517Z,99578.56
2022-10-23T10:23:06.895Z,99577.53
2022-10-23T10:25:47.433Z,99579.47
2022-10-23T10:28:44.226Z,99586.16
2022-10-23T10:31:20.262Z,99572.50
2022-10-23T10:34:17.723Z,99585.81
2022-10-23T10:36:52.699Z,99572.81
2022-10-23T10:39:39.681Z,99569.13
2022-10-23T10:42:32.437Z,99566.88
2022-10-23T10:45:09.169Z,99554.91
2022-10-23T10:47:57.144Z,99559.88
2022-10-23T10:50:46.080Z,99570.75
2022-10-23T10:53:31.381Z,99567.13
2022-10-23T10:56:01.983Z,99568.22
2022-10-23T10:58:50.274Z,99570.16
2022-10-23T11:01:28.685Z,99559.16
2022-10-23T11:04:16.584Z,99567.69
2022-10-23T11:06:48.842Z,99573.28
2022-10-23T11:09:28.215Z,99565.78
2022-10-23T11:11:55.509Z,99568.66
2022-10-23T11:14:26.982Z,99568.88
2022-10-23T11:17:12.227Z,99562.22
2022-10-23T11:20:01.567Z,99567.00
2022-10-23T11:22:43.790Z,99565.09
2022-10-23T11:25:47.150Z,99565.72
2022-10-23T11:28:56.361Z,99560.28
2022-10-23T11:31:40.771Z,99562.34
2022-10-23T11:34:36.142Z,99554.50
2022-10-23T11:37:04.821Z,99560.44
2022-10-23T11:39:34.282Z,99560.53
2022-10-23T11:42:07.057Z,99549.41
2022-10-23T11:44:42.701Z,99564.16
2022-10-23T11:47:29.166Z,99559.59
2022-10-23T11:50:04.898Z,99557.50
2022-10-23T11:52:31.755Z,99561.00
2022-10-23T11:55:16.755Z,99550.88
2022-10-23T11:57:46.549Z,99542.00
2022-10-23T12:00:23.102Z,99545.44
2022-10-23T12:02:58.390Z,99549.56
2022-10-23T12:05:37.806Z,99547.94
2022-10-23T12:08:08.769Z,99537.34
2022-10-23T12:10:45.382Z,99534.06
2022-10-23T12:13:32.453Z,99527.78
2022-10-23T12:16:00.996Z,99531.22
2022-10-23T12:18:28.750Z,99526.50
2022-10-23T12:20:59.254Z,99527.13
2022-10-23T12:23:47.358Z,99515.09
2022-10-23T12:27:04.251Z,99511.28
2022-10-23T12:29:48.561Z,99505.91
2022-10-23T12:32:24.155Z,99504.50
2022-10-23T12:35:17.767Z,99500.66
2022-10-23T12:37:58.084Z,99478.53
2022-10-23T12:40:30.124Z,99477.69
2022-10-23T12:43:00.559Z,99468.81
2022-10-23T12:45:31.232Z,99474.06
2022-10-23T12:47:59.093Z,99474.47
2022-10-23T12:50:29.522Z,99469.53
2022-10-23T12:53:05.045Z,99469.09
2022-10-23T12:56:13.093Z,99474.19
2022-10-23T12:59:00.949Z,99481.53
2022-10-23T13:01:33.255Z,99475.31
2022-10-23T13:04:29.279Z,99465.78
2022-10-23T13:06:58.458Z,99465.75
2022-10-23T13:09:35.518Z,99462.78
2022-10-23T13:12:36.523Z,99452.50
2022-10-23T13:15:06.092Z,99446.34
2022-10-23T13:17:43.118Z,99443.59
2022-10-23T13:20:18.866Z,99433.16
2022-10-23T13:22:48.239Z,99433.09
2022-10-23T13:25:36.182Z,99433.75
2022-10-23T13:28:23.624Z,99428.78
2022-10-23T13:30:59.236Z,99422.94
2022-10-23T13:33:33.356Z,99427.75
2022-10-23T13:36:27.731Z,99420.09
2022-10-23T13:39:14.695Z,99412.84
2022-10-23T13:41:46.310Z,99405.09
2022-10-23T13:44:18.381Z,99401.72
2022-10-23T13:46:45.270Z,99393.94
2022-10-23T13:49:12.177Z,99389.56
2022-10-23T13:51:51.424Z,99396.22
2022-10-23T13:54:24.722Z,99388.88
2022-10-23T13:56:52.471Z,99371.75
2022-10-23T13:59:19.312Z,99379.41
2022-10-23T14:01:47.731Z,99370.34
2022-10-23T14:04:16.805Z,99357.34
2022-10-23T14:06:44.172Z,99357.41
2022-10-23T14:09:14.058Z,99365.09
2022-10-23T14:11:40.792Z,99369.38
2022-10-23T14:14:07.766Z,99354.50
2022-10-23T14:16:34.532Z,99354.03
2022-10-23T14:19:01.339Z,99349.38
2022-10-23T14:21:28.021Z,99344.38
2022-10-23T14:23:54.822Z,99337.63
2022-10-23T14:26:25.478Z,99334.94
2022-10-23T14:28:54.058Z,99330.56
2022-10-23T14:31:21.406Z,99332.81
2022-10-23T14:33:53.922Z,99330.31
2022-10-23T14:36:20.755Z,99318.13
2022-10-23T14:38:49.009Z,99323.69
2022-10-23T14:41:17.941Z,99315.50
2022-10-23T14:43:44.950Z,99315.09
2022-10-23T14:46:14.040Z,99314.03
2022-10-23T14:48:44.576Z,99306.75
2022-10-23T14:51:25.340Z,99296.69
2022-10-23T14:53:58.913Z,99290.28
2022-10-23T14:56:26.508Z,99294.47
2022-10-23T14:58:53.403Z,99292.78
2022-10-23T15:01:20.353Z,99296.31
2022-10-23T15:03:48.556Z,99292.69
2022-10-23T15:06:18.273Z,99292.06
2022-10-23T15:08:45.235Z,99292.59
2022-10-23T15:11:12.791Z,99288.19
2022-10-23T15:13:39.673Z,99284.44
2022-10-23T15:16:09.594Z,99286.19
2022-10-23T15:21:09.446Z,99276.44
2022-10-23T15:23:43.025Z,99269.50
2022-10-23T15:26:13.432Z,99274.09
2022-10-23T15:28:40.108Z,99273.19
2022-10-23T15:31:06.734Z,99268.72
2022-10-23T15:33:33.417Z,99270.06
2022-10-23T15:36:01.645Z,99269.72
2022-10-23T15:38:28.329Z,99263.53
2022-10-23T15:41:13.298Z,99257.16
2022-10-23T15:43:40.025Z,99241.25
2022-10-23T15:46:06.719Z,99242.00
2022-10-23T15:48:33.626Z,99230.69
2022-10-23T15:51:00.372Z,99235.72
2022-10-23T15:53:27.083Z,99232.22
2022-10-23T15:55:53.807Z,99215.19
2022-10-23T15:58:20.520Z,99217.91
2022-10-23T16:00:47.220Z,99218.66
2022-10-23T16:03:13.921Z,99208.41
2022-10-23T16:05:40.887Z,99210.94
2022-10-23T16:08:07.698Z,99201.97
2022-10-23T16:10:39.250Z,99198.44
2022-10-23T16:13:05.970Z,99202.16
2022-10-23T16:15:35.892Z,99201.22
2022-10-23T16:18:02.755Z,99200.78
2022-10-23T16:20:29.437Z,99203.13
2022-10-23T16:22:56.189Z,99200.78
2022-10-23T16:25:22.886Z,99194.53
2022-10-23T16:27:49.593Z,99200.19
2022-10-23T16:30:16.347Z,99196.28
2022-10-23T16:32:43.103Z,99196.69
2022-10-23T16:35:12.424Z,99197.84
2022-10-23T16:37:54.315Z,99191.56
2022-10-23T16:40:21.169Z,99199.56
2022-10-23T16:43:06.373Z,99192.69
2022-10-23T16:45:40.736Z,99193.56
2022-10-23T16:48:07.496Z,99192.38
2022-10-23T16:50:34.190Z,99192.84
2022-10-23T16:53:00.939Z,99184.16
2022-10-23T16:55:27.616Z,99191.69
2022-10-23T16:57:54.311Z,99183.47
2022-10-23T17:00:22.647Z,99188.25
2022-10-23T17:02:49.577Z,99179.81
2022-10-23T17:05:16.248Z,99172.41
2022-10-23T17:07:43.238Z,99170.13
2022-10-23T17:10:10.232Z,99174.03
2022-10-23T17:12:37.481Z,99182.91
2022-10-23T17:15:04.682Z,99168.28
2022-10-23T17:17:31.305Z,99169.56
2022-10-23T17:19:57.977Z,99162.97
2022-10-23T17:22:25.177Z,99165.06
2022-10-23T17:24:53.160Z,99159.31
2022-10-23T17:27:21.223Z,99148.09
2022-10-23T17:29:48.025Z,99140.59
2022-10-23T17:32:14.748Z,99139.03
2022-10-23T17:34:41.623Z,99135.97
2022-10-23T17:37:10.142Z,99128.84
2022-10-23T17:39:36.867Z,99126.84
2022-10-23T17:42:03.585Z,99126.31
2022-10-23T17:44:30.270Z,99125.41
2022-10-23T17:46:57.051Z,99110.75
2022-10-23T17:49:25.085Z,99112.28
2022-10-23T17:51:54.519Z,99117.38
2022-10-23T17:54:28.504Z,99101.19
2022-10-23T17:56:55.311Z,99103.97
2022-10-23T17:59:22.978Z,99103.78
2022-10-23T18:01:50.416Z,99112.28
2022-10-23T18:04:19.258Z,99102.31
2022-10-23T18:06:49.088Z,99100.38
2022-10-23T18:09:16.266Z,99102.97
2022-10-23T18:11:48.154Z,99090.47
2022-10-23T18:14:17.612Z,99096.56
2022-10-23T18:16:45.768Z,99101.28
2022-10-23T18:19:13.545Z,99108.97
2022-10-23T18:21:40.411Z,99087.72
2022-10-23T18:24:07.357Z,99092.88
2022-10-23T18:26:39.199Z,99092.72
2022-10-23T18:29:21.307Z,99077.59
2022-10-23T18:31:48.445Z,99083.00
2022-10-23T18:34:21.924Z,99083.41
2022-10-23T18:36:49.928Z,99066.09
2022-10-23T18:39:19.392Z,99067.50
2022-10-23T18:41:46.594Z,99067.31
2022-10-23T18:44:16.889Z,99062.31
2022-10-23T18:46:44.908Z,99053.72
2022-10-23T18:49:11.730Z,99054.75
2022-10-23T18:51:38.562Z,99037.19
2022-10-23T18:54:08.872Z,99034.72
2022-10-23T18:56:36.080Z,99037.59
2022-10-23T18:59:05.618Z,99044.28
2022-10-23T19:01:32.761Z,99033.94
2022-10-23T19:04:01.409Z,99018.44
2022-10-23T19:06:29.658Z,99015.31
2022-10-23T19:08:57.015Z,99019.91
2022-10-23T19:11:25.970Z,99021.53
2022-10-23T19:13:52.701Z,98999.94
2022-10-23T19:16:27.101Z,99027.13
2022-10-23T19:18:58.906Z,99003.03
2022-10-23T19:21:31.707Z,99005.72
2022-10-23T19:24:08.338Z,98997.03
2022-10-23T19:26:37.385Z,98996.63
2022-10-23T19:29:07.078Z,98986.94
2022-10-23T19:31:34.128Z,98983.22
2022-10-23T19:34:00.815Z,98986.28
2022-10-23T19:36:27.536Z,98982.59
2022-10-23T19:38:54.174Z,98975.19
2022-10-23T19:41:20.887Z,98984.63
2022-10-23T19:43:47.498Z,98978.00
2022-10-23T19:46:14.889Z,98981.53
2022-10-23T19:48:44.516Z,98968.94
2022-10-23T19:51:12.958Z,98972.25
2022-10-23T19:53:40.894Z,98956.34
2022-10-23T19:56:09.538Z,98958.81
2022-10-23T19:58:36.340Z,98949.34
2022-10-23T20:01:12.513Z,98955.59
2022-10-23T20:03:41.132Z,98944.16
2022-10-23T20:06:10.347Z,98946.66
2022-10-23T20:08:37.092Z,98932.38
2022-10-23T20:11:03.800Z,98932.88
2022-10-23T20:13:30.853Z,98939.44
2022-10-23T20:15:57.551Z,98926.25
2022-10-23T20:18:25.901Z,98926.44
2022-10-23T20:20:53.478Z,98915.34
2022-10-23T20:23:20.173Z,98916.09
2022-10-23T20:25:46.827Z,98908.06
2022-10-23T20:28:15.172Z,98901.69
2022-10-23T20:30:44.059Z,98896.09
2022-10-23T20:33:10.903Z,98900.28
2022-10-23T20:35:42.547Z,98892.03
2022-10-23T20:38:09.915Z,98897.97
2022-10-23T20:40:36.656Z,98891.22
2022-10-23T20:43:03.662Z,98880.22
2022-10-23T20:45:30.379Z,98882.16
2022-10-23T20:47:57.639Z,98873.81
2022-10-23T20:50:24.386Z,98865.56
2022-10-23T20:52:51.851Z,98860.59
2022-10-23T20:55:19.407Z,98861.88
2022-10-23T20:57:46.400Z,98863.56
2022-10-23T21:00:13.700Z,98866.41
2022-10-23T21:02:40.498Z,98854.03
2022-10-23T21:05:07.660Z,98853.41
2022-10-23T21:07:34.461Z,98854.06
2022-10-23T21:10:03.357Z,98861.69
2022-10-23T21:12:30.383Z,98855.50
2022-10-23T21:14:57.135Z,98849.09
2022-10-23T21:17:23.865Z,98848.28
2022-10-23T21:19:50.619Z,98842.44
2022-10-23T21:22:17.479Z,98841.69
2022-10-23T21:24:44.260Z,98827.88
2022-10-23T21:27:13.708Z,98825.53
2022-10-23T21:29:40.430Z,98828.03
2022-10-23T21:32:08.762Z,98826.78
2022-10-23T21:34:35.673Z,98817.50
2022-10-23T21:37:18.374Z,98816.47
2022-10-23T21:39:46.248Z,98813.03
2022-10-23T21:42:14.033Z,98807.38
2022-10-23T21:44:40.784Z,98799.75
2022-10-23T21:47:07.692Z,98800.56
2022-10-23T21:49:34.467Z,98795.59
2022-10-23T21:52:01.401Z,98801.84
2022-10-23T21:54:30.724Z,98801.19
2022-10-23T21:57:00.068Z,98791.56
2022-10-23T21:59:30.017Z,98791.72
2022-10-23T22:01:58.722Z,98801.59
2022-10-23T22:04:25.471Z,98785.50
2022-10-23T22:06:53.241Z,98785.09
2022-10-23T22:09:21.911Z,98787.56
2022-10-23T22:11:50.327Z,98770.66
2022-10-23T22:14:17.237Z,98767.81
2022-10-23T22:16:44.005Z,98775.38
2022-10-23T22:19:12.885Z,98763.41
2022-10-23T22:21:40.397Z,98771.47
2022-10-23T22:24:07.758Z,98759.53
2022-10-23T22:26:38.326Z,98756.00
2022-10-23T22:29:10.929Z,98770.03
2022-10-23T22:31:38.762Z,98754.97
2022-10-23T22:34:20.137Z,98754.41
2022-10-23T22:36:55.184Z,98753.94
2022-10-23T22:39:22.429Z,98742.03
2022-10-23T22:41:49.493Z,98747.56
2022-10-23T22:44:16.296Z,98741.78
2022-10-23T22:46:43.618Z,98746.75
2022-10-23T22:49:10.667Z,98742.38
2022-10-23T22:51:38.754Z,98741.78
2022-10-23T22:54:05.808Z,98734.81
2022-10-23T22:56:33.068Z,98738.91
2022-10-23T22:58:59.706Z,98732.28
2022-10-23T23:01:31.722Z,98730.44
2022-10-23T23:04:08.654Z,98733.09
2022-10-23T23:06:46.022Z,98723.88
2022-10-23T23:09:17.858Z,98718.44
2022-10-23T23:11:51.799Z,98725.28
2022-10-23T23:14:23.068Z,98717.00
2022-10-23T23:16:52.672Z,98716.00
2022-10-23T23:19:19.911Z,98707.72
2022-10-23T23:21:46.690Z,98707.56
2022-10-23T23:24:13.399Z,98699.50
2022-10-23T23:26:40.189Z,98697.25
2022-10-23T23:29:06.876Z,98701.56
2022-10-23T23:31:33.605Z,98701.97
2022-10-23T23:34:01.004Z,98698.25
2022-10-23T23:36:28.369Z,98696.00
2022-10-23T23:38:56.834Z,98686.94
2022-10-23T23:41:25.103Z,98686.09
2022-10-23T23:43:54.266Z,98685.25
2022-10-23T23:46:21.008Z,98687.56
2022-10-23T23:48:49.440Z,98687.34
2022-10-23T23:51:19.274Z,98684.25
2022-10-23T23:53:46.755Z,98673.72
2022-10-23T23:56:14.057Z,98678.28
2022-10-23T23:58:40.810Z,98682.59
